This is the latest recevied weather packets stored in our database for station/object SP4FDH-13. If no packets are shown the sender has not sent any weather packets the latest 10 day(s).
| Time | Temp. | Humidity | Pressure | Rain* | Wind** | Luminosity | Snow |
|---|---|---|---|---|---|---|---|
| 1777385551 | 11.67° C | 41% | 1020.7 hPa | - | - | - | - |
| 1777384975 | 11.67° C | 42% | 1020.8 hPa | - | - | - | - |
| 1777384400 | 12.22° C | 39% | 1020.7 hPa | - | - | - | - |
| 1777383825 | 12.22° C | 42% | 1020.9 hPa | - | - | - | - |
| 1777383250 | 12.22° C | 43% | 1021 hPa | - | - | - | - |
| 1777382676 | 12.22° C | 43% | 1020.9 hPa | - | - | - | - |
| 1777382102 | 12.78° C | 48% | 1021.5 hPa | - | - | - | - |
| 1777381528 | 14.44° C | 41% | 1020.7 hPa | - | - | - | - |
| 1777380951 | 14.44° C | 44% | 1021 hPa | - | - | - | - |
| 1777380375 | 14.44° C | 43% | 1021 hPa | - | - | - | - |
| 1777379799 | 14.44° C | 43% | 1021 hPa | - | - | - | - |
| 1777379222 | 13.89° C | 46% | 1021.4 hPa | - | - | - | - |
| 1777378648 | 15° C | 44% | 1021.3 hPa | - | - | - | - |
| 1777378071 | 14.44° C | 45% | 1021.3 hPa | - | - | - | - |
| 1777377496 | 15° C | 43% | 1021.2 hPa | - | - | - | - |
| 1777376920 | 14.44° C | 43% | 1021.3 hPa | - | - | - | - |
| 1777376341 | 13.33° C | 50% | 1021.6 hPa | - | - | - | - |
| 1777375762 | 12.22° C | 58% | 1021.9 hPa | - | - | - | - |
| 1777375186 | 11.11° C | 66% | 1022.1 hPa | - | - | - | - |
| 1777374609 | 11.11° C | 69% | 1022.2 hPa | - | - | - | - |
| 1777374032 | 10° C | 77% | 1022.5 hPa | - | - | - | - |
| 1777373457 | 10.56° C | 73% | 1022.4 hPa | - | - | - | - |
| 1777372882 | 11.67° C | 65% | 1022.2 hPa | - | - | - | - |
| 1777372306 | 12.78° C | 60% | 1022.1 hPa | - | - | - | - |
| 1777371729 | 13.33° C | 60% | 1021.9 hPa | - | - | - | - |
* Rain since midnight (hover to see other rain measurements)
** Current wind speed in m/s (hover to see current wind gust speed)